sensor_id;sensor_type;location;lat;lon;timestamp;P1;durP1;ratioP1;P2;durP2;ratioP2
69410;SDS011;56604;48.652;9.194;2023-05-20T00:00:09;10.70;;;5.03;;
69410;SDS011;56604;48.652;9.194;2023-05-20T00:02:35;11.37;;;4.87;;
69410;SDS011;56604;48.652;9.194;2023-05-20T00:05:00;8.13;;;5.10;;
69410;SDS011;56604;48.652;9.194;2023-05-20T00:07:26;11.67;;;4.83;;
69410;SDS011;56604;48.652;9.194;2023-05-20T00:09:51;13.60;;;4.97;;
69410;SDS011;56604;48.652;9.194;2023-05-20T00:12:17;10.07;;;5.40;;
69410;SDS011;56604;48.652;9.194;2023-05-20T00:14:42;5.70;;;5.20;;
69410;SDS011;56604;48.652;9.194;2023-05-20T00:17:07;5.23;;;4.73;;
69410;SDS011;56604;48.652;9.194;2023-05-20T00:19:33;5.40;;;4.40;;
69410;SDS011;56604;48.652;9.194;2023-05-20T00:21:58;10.63;;;4.37;;
69410;SDS011;56604;48.652;9.194;2023-05-20T00:24:24;5.50;;;5.00;;
69410;SDS011;56604;48.652;9.194;2023-05-20T00:26:49;10.77;;;5.20;;
69410;SDS011;56604;48.652;9.194;2023-05-20T00:29:15;7.77;;;5.37;;
69410;SDS011;56604;48.652;9.194;2023-05-20T00:31:40;5.63;;;3.87;;
69410;SDS011;56604;48.652;9.194;2023-05-20T00:34:06;9.60;;;4.90;;
69410;SDS011;56604;48.652;9.194;2023-05-20T00:36:31;7.73;;;4.93;;
69410;SDS011;56604;48.652;9.194;2023-05-20T00:38:56;7.73;;;4.80;;
69410;SDS011;56604;48.652;9.194;2023-05-20T00:41:22;10.43;;;4.67;;
69410;SDS011;56604;48.652;9.194;2023-05-20T00:43:47;6.63;;;4.77;;
69410;SDS011;56604;48.652;9.194;2023-05-20T00:46:12;7.43;;;4.90;;
69410;SDS011;56604;48.652;9.194;2023-05-20T00:48:42;5.63;;;4.77;;
69410;SDS011;56604;48.652;9.194;2023-05-20T00:51:09;5.23;;;4.60;;
69410;SDS011;56604;48.652;9.194;2023-05-20T00:53:35;13.63;;;5.70;;
69410;SDS011;56604;48.652;9.194;2023-05-20T00:56:01;5.07;;;4.63;;
69410;SDS011;56604;48.652;9.194;2023-05-20T00:58:28;7.03;;;5.27;;
69410;SDS011;56604;48.652;9.194;2023-05-20T01:00:53;9.00;;;4.93;;
69410;SDS011;56604;48.652;9.194;2023-05-20T01:03:19;10.07;;;4.90;;
69410;SDS011;56604;48.652;9.194;2023-05-20T01:05:44;12.50;;;5.63;;
69410;SDS011;56604;48.652;9.194;2023-05-20T01:08:10;12.07;;;5.50;;
69410;SDS011;56604;48.652;9.194;2023-05-20T01:10:36;7.47;;;5.40;;
69410;SDS011;56604;48.652;9.194;2023-05-20T01:13:06;5.93;;;5.37;;
69410;SDS011;56604;48.652;9.194;2023-05-20T01:15:35;7.13;;;5.53;;
69410;SDS011;56604;48.652;9.194;2023-05-20T01:18:02;5.37;;;4.97;;
69410;SDS011;56604;48.652;9.194;2023-05-20T01:20:32;6.23;;;5.10;;
69410;SDS011;56604;48.652;9.194;2023-05-20T01:22:59;8.53;;;5.20;;
69410;SDS011;56604;48.652;9.194;2023-05-20T01:25:25;11.03;;;5.63;;
69410;SDS011;56604;48.652;9.194;2023-05-20T01:27:50;10.33;;;6.37;;
69410;SDS011;56604;48.652;9.194;2023-05-20T01:30:18;6.17;;;5.63;;
69410;SDS011;56604;48.652;9.194;2023-05-20T01:32:47;7.40;;;5.60;;
69410;SDS011;56604;48.652;9.194;2023-05-20T01:35:15;9.60;;;5.83;;
69410;SDS011;56604;48.652;9.194;2023-05-20T01:37:41;12.10;;;5.60;;
69410;SDS011;56604;48.652;9.194;2023-05-20T01:40:08;9.70;;;5.57;;
69410;SDS011;56604;48.652;9.194;2023-05-20T01:42:36;6.80;;;6.10;;
69410;SDS011;56604;48.652;9.194;2023-05-20T01:45:03;12.10;;;6.60;;
69410;SDS011;56604;48.652;9.194;2023-05-20T01:47:29;6.80;;;5.83;;
69410;SDS011;56604;48.652;9.194;2023-05-20T01:49:55;9.90;;;5.90;;
69410;SDS011;56604;48.652;9.194;2023-05-20T01:52:20;6.27;;;5.60;;
69410;SDS011;56604;48.652;9.194;2023-05-20T01:54:46;8.73;;;5.27;;
69410;SDS011;56604;48.652;9.194;2023-05-20T01:57:16;7.47;;;5.73;;
69410;SDS011;56604;48.652;9.194;2023-05-20T01:59:45;16.50;;;6.20;;
69410;SDS011;56604;48.652;9.194;2023-05-20T02:02:11;9.07;;;5.40;;
69410;SDS011;56604;48.652;9.194;2023-05-20T02:04:37;5.80;;;5.30;;
69410;SDS011;56604;48.652;9.194;2023-05-20T02:07:02;6.37;;;5.67;;
69410;SDS011;56604;48.652;9.194;2023-05-20T02:09:28;5.83;;;5.33;;
69410;SDS011;56604;48.652;9.194;2023-05-20T02:11:53;7.27;;;5.87;;
69410;SDS011;56604;48.652;9.194;2023-05-20T02:14:18;7.20;;;5.83;;
69410;SDS011;56604;48.652;9.194;2023-05-20T02:16:45;7.97;;;6.57;;
69410;SDS011;56604;48.652;9.194;2023-05-20T02:19:11;6.40;;;5.80;;
69410;SDS011;56604;48.652;9.194;2023-05-20T02:21:38;6.70;;;5.67;;
69410;SDS011;56604;48.652;9.194;2023-05-20T02:24:04;6.83;;;6.03;;
69410;SDS011;56604;48.652;9.194;2023-05-20T02:26:29;8.20;;;6.10;;
69410;SDS011;56604;48.652;9.194;2023-05-20T02:28:55;15.67;;;5.53;;
69410;SDS011;56604;48.652;9.194;2023-05-20T02:31:20;8.23;;;5.60;;
69410;SDS011;56604;48.652;9.194;2023-05-20T02:33:46;6.20;;;5.60;;
69410;SDS011;56604;48.652;9.194;2023-05-20T02:36:11;6.33;;;5.30;;
69410;SDS011;56604;48.652;9.194;2023-05-20T02:38:37;11.10;;;6.47;;
69410;SDS011;56604;48.652;9.194;2023-05-20T02:41:02;11.27;;;6.97;;
69410;SDS011;56604;48.652;9.194;2023-05-20T02:43:28;6.87;;;6.17;;
69410;SDS011;56604;48.652;9.194;2023-05-20T02:45:54;13.53;;;5.87;;
69410;SDS011;56604;48.652;9.194;2023-05-20T02:48:20;9.43;;;6.03;;
69410;SDS011;56604;48.652;9.194;2023-05-20T02:50:45;8.50;;;5.80;;
69410;SDS011;56604;48.652;9.194;2023-05-20T02:53:11;8.53;;;6.33;;
69410;SDS011;56604;48.652;9.194;2023-05-20T02:55:36;6.43;;;5.67;;
69410;SDS011;56604;48.652;9.194;2023-05-20T02:58:02;7.50;;;6.20;;
69410;SDS011;56604;48.652;9.194;2023-05-20T03:00:27;6.80;;;6.13;;
69410;SDS011;56604;48.652;9.194;2023-05-20T03:02:59;7.90;;;5.60;;
69410;SDS011;56604;48.652;9.194;2023-05-20T03:05:24;7.90;;;6.30;;
69410;SDS011;56604;48.652;9.194;2023-05-20T03:07:51;6.90;;;6.20;;
69410;SDS011;56604;48.652;9.194;2023-05-20T03:10:16;8.17;;;5.93;;
69410;SDS011;56604;48.652;9.194;2023-05-20T03:12:42;6.57;;;6.03;;
69410;SDS011;56604;48.652;9.194;2023-05-20T03:15:07;10.87;;;6.90;;
69410;SDS011;56604;48.652;9.194;2023-05-20T03:17:33;6.67;;;6.07;;
69410;SDS011;56604;48.652;9.194;2023-05-20T03:19:58;7.00;;;6.40;;
69410;SDS011;56604;48.652;9.194;2023-05-20T03:22:25;13.90;;;6.00;;
69410;SDS011;56604;48.652;9.194;2023-05-20T03:24:50;14.90;;;6.60;;
69410;SDS011;56604;48.652;9.194;2023-05-20T03:27:16;13.83;;;7.07;;
69410;SDS011;56604;48.652;9.194;2023-05-20T03:29:42;12.20;;;6.63;;
69410;SDS011;56604;48.652;9.194;2023-05-20T03:32:08;7.97;;;7.17;;
69410;SDS011;56604;48.652;9.194;2023-05-20T03:34:33;14.33;;;7.07;;
69410;SDS011;56604;48.652;9.194;2023-05-20T03:36:58;7.67;;;6.97;;
69410;SDS011;56604;48.652;9.194;2023-05-20T03:39:24;8.90;;;7.20;;
69410;SDS011;56604;48.652;9.194;2023-05-20T03:41:49;12.83;;;7.20;;
69410;SDS011;56604;48.652;9.194;2023-05-20T03:44:14;7.27;;;6.50;;
69410;SDS011;56604;48.652;9.194;2023-05-20T03:46:40;7.10;;;6.50;;
69410;SDS011;56604;48.652;9.194;2023-05-20T03:49:06;12.20;;;6.37;;
69410;SDS011;56604;48.652;9.194;2023-05-20T03:51:31;8.47;;;7.37;;
69410;SDS011;56604;48.652;9.194;2023-05-20T03:53:56;10.03;;;6.40;;
69410;SDS011;56604;48.652;9.194;2023-05-20T03:56:22;8.67;;;6.87;;
69410;SDS011;56604;48.652;9.194;2023-05-20T03:58:47;7.97;;;7.17;;
69410;SDS011;56604;48.652;9.194;2023-05-20T04:01:12;7.77;;;6.83;;
69410;SDS011;56604;48.652;9.194;2023-05-20T04:03:38;6.97;;;6.27;;
69410;SDS011;56604;48.652;9.194;2023-05-20T04:06:05;18.17;;;6.80;;
69410;SDS011;56604;48.652;9.194;2023-05-20T04:08:31;7.87;;;7.10;;
69410;SDS011;56604;48.652;9.194;2023-05-20T04:10:56;7.67;;;6.80;;
69410;SDS011;56604;48.652;9.194;2023-05-20T04:13:23;7.40;;;6.53;;
69410;SDS011;56604;48.652;9.194;2023-05-20T04:15:51;15.67;;;6.80;;
69410;SDS011;56604;48.652;9.194;2023-05-20T04:18:17;15.53;;;6.60;;
69410;SDS011;56604;48.652;9.194;2023-05-20T04:20:43;6.67;;;6.00;;
69410;SDS011;56604;48.652;9.194;2023-05-20T04:23:08;8.83;;;7.50;;
69410;SDS011;56604;48.652;9.194;2023-05-20T04:25:34;17.70;;;6.90;;
69410;SDS011;56604;48.652;9.194;2023-05-20T04:28:00;10.63;;;6.63;;
69410;SDS011;56604;48.652;9.194;2023-05-20T04:30:25;10.83;;;6.90;;
69410;SDS011;56604;48.652;9.194;2023-05-20T04:32:51;9.67;;;6.80;;
69410;SDS011;56604;48.652;9.194;2023-05-20T04:35:16;7.90;;;6.47;;
69410;SDS011;56604;48.652;9.194;2023-05-20T04:37:42;7.13;;;6.43;;
69410;SDS011;56604;48.652;9.194;2023-05-20T04:40:11;11.03;;;6.87;;
69410;SDS011;56604;48.652;9.194;2023-05-20T04:42:37;7.63;;;6.43;;
69410;SDS011;56604;48.652;9.194;2023-05-20T04:45:03;9.53;;;7.00;;
69410;SDS011;56604;48.652;9.194;2023-05-20T04:47:30;12.30;;;8.10;;
69410;SDS011;56604;48.652;9.194;2023-05-20T04:49:56;8.57;;;7.67;;
69410;SDS011;56604;48.652;9.194;2023-05-20T04:52:22;7.67;;;6.97;;
69410;SDS011;56604;48.652;9.194;2023-05-20T04:54:47;9.17;;;6.90;;
69410;SDS011;56604;48.652;9.194;2023-05-20T04:57:14;9.67;;;7.33;;
69410;SDS011;56604;48.652;9.194;2023-05-20T04:59:41;11.10;;;6.13;;
69410;SDS011;56604;48.652;9.194;2023-05-20T05:02:06;7.50;;;6.63;;
69410;SDS011;56604;48.652;9.194;2023-05-20T05:04:31;11.83;;;6.80;;
69410;SDS011;56604;48.652;9.194;2023-05-20T05:06:57;10.00;;;7.10;;
69410;SDS011;56604;48.652;9.194;2023-05-20T05:09:22;7.63;;;6.80;;
69410;SDS011;56604;48.652;9.194;2023-05-20T05:11:48;10.00;;;6.93;;
69410;SDS011;56604;48.652;9.194;2023-05-20T05:14:13;8.40;;;6.40;;
69410;SDS011;56604;48.652;9.194;2023-05-20T05:16:38;18.00;;;7.50;;
69410;SDS011;56604;48.652;9.194;2023-05-20T05:19:03;10.20;;;7.13;;
69410;SDS011;56604;48.652;9.194;2023-05-20T05:21:29;20.60;;;7.67;;
69410;SDS011;56604;48.652;9.194;2023-05-20T05:23:56;12.23;;;7.20;;
69410;SDS011;56604;48.652;9.194;2023-05-20T05:26:22;14.33;;;7.83;;
69410;SDS011;56604;48.652;9.194;2023-05-20T05:28:47;10.83;;;6.73;;
69410;SDS011;56604;48.652;9.194;2023-05-20T05:31:12;15.57;;;7.50;;
69410;SDS011;56604;48.652;9.194;2023-05-20T05:33:38;11.87;;;6.80;;
69410;SDS011;56604;48.652;9.194;2023-05-20T05:36:03;8.40;;;7.30;;
69410;SDS011;56604;48.652;9.194;2023-05-20T05:38:30;7.87;;;7.10;;
69410;SDS011;56604;48.652;9.194;2023-05-20T05:40:56;9.20;;;7.17;;
69410;SDS011;56604;48.652;9.194;2023-05-20T05:43:21;9.17;;;6.20;;
69410;SDS011;56604;48.652;9.194;2023-05-20T05:45:46;6.60;;;6.00;;
69410;SDS011;56604;48.652;9.194;2023-05-20T05:48:12;9.20;;;5.70;;
69410;SDS011;56604;48.652;9.194;2023-05-20T05:50:37;6.87;;;5.97;;
69410;SDS011;56604;48.652;9.194;2023-05-20T05:53:02;9.10;;;7.10;;
69410;SDS011;56604;48.652;9.194;2023-05-20T05:55:28;7.90;;;6.60;;
69410;SDS011;56604;48.652;9.194;2023-05-20T05:57:53;12.53;;;7.30;;
69410;SDS011;56604;48.652;9.194;2023-05-20T06:00:18;13.07;;;7.30;;
69410;SDS011;56604;48.652;9.194;2023-05-20T06:02:44;6.90;;;6.30;;
69410;SDS011;56604;48.652;9.194;2023-05-20T06:05:11;11.60;;;6.60;;
69410;SDS011;56604;48.652;9.194;2023-05-20T06:07:37;8.17;;;6.40;;
69410;SDS011;56604;48.652;9.194;2023-05-20T06:10:02;15.13;;;8.30;;
69410;SDS011;56604;48.652;9.194;2023-05-20T06:12:28;23.10;;;6.83;;
69410;SDS011;56604;48.652;9.194;2023-05-20T06:14:53;9.70;;;6.23;;
69410;SDS011;56604;48.652;9.194;2023-05-20T06:17:18;6.90;;;6.30;;
69410;SDS011;56604;48.652;9.194;2023-05-20T06:19:44;7.53;;;6.73;;
69410;SDS011;56604;48.652;9.194;2023-05-20T06:22:09;11.60;;;7.30;;
69410;SDS011;56604;48.652;9.194;2023-05-20T06:24:34;7.87;;;7.00;;
69410;SDS011;56604;48.652;9.194;2023-05-20T06:27:00;7.67;;;6.90;;
69410;SDS011;56604;48.652;9.194;2023-05-20T06:29:27;10.10;;;6.20;;
69410;SDS011;56604;48.652;9.194;2023-05-20T06:31:53;8.80;;;6.60;;
69410;SDS011;56604;48.652;9.194;2023-05-20T06:34:18;7.13;;;6.40;;
69410;SDS011;56604;48.652;9.194;2023-05-20T06:36:43;9.33;;;6.90;;
69410;SDS011;56604;48.652;9.194;2023-05-20T06:39:08;11.93;;;7.10;;
69410;SDS011;56604;48.652;9.194;2023-05-20T06:41:37;7.87;;;6.23;;
69410;SDS011;56604;48.652;9.194;2023-05-20T06:44:05;7.30;;;6.60;;
69410;SDS011;56604;48.652;9.194;2023-05-20T06:46:32;10.33;;;7.00;;
69410;SDS011;56604;48.652;9.194;2023-05-20T06:48:58;6.93;;;6.33;;
69410;SDS011;56604;48.652;9.194;2023-05-20T06:51:23;20.10;;;7.03;;
69410;SDS011;56604;48.652;9.194;2023-05-20T06:53:48;8.30;;;6.70;;
69410;SDS011;56604;48.652;9.194;2023-05-20T06:56:14;8.50;;;5.60;;
69410;SDS011;56604;48.652;9.194;2023-05-20T06:58:40;7.50;;;6.10;;
69410;SDS011;56604;48.652;9.194;2023-05-20T07:01:05;10.43;;;7.03;;
69410;SDS011;56604;48.652;9.194;2023-05-20T07:03:30;6.90;;;6.20;;
69410;SDS011;56604;48.652;9.194;2023-05-20T07:05:55;9.80;;;6.70;;
69410;SDS011;56604;48.652;9.194;2023-05-20T07:08:21;11.87;;;6.50;;
69410;SDS011;56604;48.652;9.194;2023-05-20T07:10:46;6.27;;;5.67;;
69410;SDS011;56604;48.652;9.194;2023-05-20T07:13:12;8.57;;;6.80;;
69410;SDS011;56604;48.652;9.194;2023-05-20T07:15:37;7.10;;;6.50;;
69410;SDS011;56604;48.652;9.194;2023-05-20T07:18:03;10.33;;;6.57;;
69410;SDS011;56604;48.652;9.194;2023-05-20T07:20:28;31.20;;;7.20;;
69410;SDS011;56604;48.652;9.194;2023-05-20T07:22:53;8.30;;;6.70;;
69410;SDS011;56604;48.652;9.194;2023-05-20T07:25:19;9.37;;;7.20;;
69410;SDS011;56604;48.652;9.194;2023-05-20T07:27:44;9.80;;;7.43;;
69410;SDS011;56604;48.652;9.194;2023-05-20T07:30:10;10.20;;;7.73;;
69410;SDS011;56604;48.652;9.194;2023-05-20T07:32:35;7.80;;;7.03;;
69410;SDS011;56604;48.652;9.194;2023-05-20T07:35:00;7.70;;;7.00;;
69410;SDS011;56604;48.652;9.194;2023-05-20T07:37:26;10.00;;;6.47;;
69410;SDS011;56604;48.652;9.194;2023-05-20T07:39:51;7.77;;;6.73;;
69410;SDS011;56604;48.652;9.194;2023-05-20T07:42:17;35.17;;;7.97;;
69410;SDS011;56604;48.652;9.194;2023-05-20T07:44:42;12.13;;;7.10;;
69410;SDS011;56604;48.652;9.194;2023-05-20T07:47:08;12.90;;;7.10;;
69410;SDS011;56604;48.652;9.194;2023-05-20T07:49:33;8.30;;;7.47;;
69410;SDS011;56604;48.652;9.194;2023-05-20T07:51:58;13.13;;;7.93;;
69410;SDS011;56604;48.652;9.194;2023-05-20T07:54:23;14.67;;;7.30;;
69410;SDS011;56604;48.652;9.194;2023-05-20T07:56:49;9.87;;;7.17;;
69410;SDS011;56604;48.652;9.194;2023-05-20T07:59:15;7.93;;;7.13;;
69410;SDS011;56604;48.652;9.194;2023-05-20T08:01:40;10.50;;;7.37;;
69410;SDS011;56604;48.652;9.194;2023-05-20T08:04:06;8.47;;;7.03;;
69410;SDS011;56604;48.652;9.194;2023-05-20T08:06:31;8.60;;;7.70;;
69410;SDS011;56604;48.652;9.194;2023-05-20T08:08:57;9.20;;;6.60;;
69410;SDS011;56604;48.652;9.194;2023-05-20T08:11:22;7.60;;;6.90;;
69410;SDS011;56604;48.652;9.194;2023-05-20T08:13:47;8.20;;;7.37;;
69410;SDS011;56604;48.652;9.194;2023-05-20T08:16:13;8.90;;;8.00;;
69410;SDS011;56604;48.652;9.194;2023-05-20T08:18:38;8.00;;;7.20;;
69410;SDS011;56604;48.652;9.194;2023-05-20T08:21:04;8.90;;;8.00;;
69410;SDS011;56604;48.652;9.194;2023-05-20T08:23:31;11.20;;;7.73;;
69410;SDS011;56604;48.652;9.194;2023-05-20T08:25:57;12.10;;;7.23;;
69410;SDS011;56604;48.652;9.194;2023-05-20T08:28:26;11.43;;;7.70;;
69410;SDS011;56604;48.652;9.194;2023-05-20T08:30:51;8.87;;;7.60;;
69410;SDS011;56604;48.652;9.194;2023-05-20T08:33:17;7.33;;;6.63;;
69410;SDS011;56604;48.652;9.194;2023-05-20T08:35:43;7.57;;;6.93;;
69410;SDS011;56604;48.652;9.194;2023-05-20T08:38:08;7.60;;;6.80;;
69410;SDS011;56604;48.652;9.194;2023-05-20T08:40:34;7.30;;;6.60;;
69410;SDS011;56604;48.652;9.194;2023-05-20T08:43:00;6.47;;;5.97;;
69410;SDS011;56604;48.652;9.194;2023-05-20T08:45:26;6.93;;;6.33;;
69410;SDS011;56604;48.652;9.194;2023-05-20T08:47:52;7.17;;;6.47;;
69410;SDS011;56604;48.652;9.194;2023-05-20T08:50:18;7.03;;;6.33;;
69410;SDS011;56604;48.652;9.194;2023-05-20T08:52:45;6.77;;;6.17;;
69410;SDS011;56604;48.652;9.194;2023-05-20T08:55:14;9.00;;;6.70;;
69410;SDS011;56604;48.652;9.194;2023-05-20T08:57:46;9.23;;;6.07;;
69410;SDS011;56604;48.652;9.194;2023-05-20T09:00:13;9.07;;;6.23;;
69410;SDS011;56604;48.652;9.194;2023-05-20T09:02:40;16.67;;;6.53;;
69410;SDS011;56604;48.652;9.194;2023-05-20T09:05:07;6.93;;;6.20;;
69410;SDS011;56604;48.652;9.194;2023-05-20T09:07:35;8.30;;;6.53;;
69410;SDS011;56604;48.652;9.194;2023-05-20T09:10:00;6.40;;;5.80;;
69410;SDS011;56604;48.652;9.194;2023-05-20T09:12:25;10.60;;;6.23;;
69410;SDS011;56604;48.652;9.194;2023-05-20T09:14:50;14.23;;;8.20;;
69410;SDS011;56604;48.652;9.194;2023-05-20T09:17:16;11.63;;;7.30;;
69410;SDS011;56604;48.652;9.194;2023-05-20T09:19:42;7.77;;;7.00;;
69410;SDS011;56604;48.652;9.194;2023-05-20T09:22:07;7.20;;;6.50;;
69410;SDS011;56604;48.652;9.194;2023-05-20T09:24:33;9.40;;;7.30;;
69410;SDS011;56604;48.652;9.194;2023-05-20T09:26:58;7.30;;;6.50;;
69410;SDS011;56604;48.652;9.194;2023-05-20T09:29:24;7.83;;;6.93;;
69410;SDS011;56604;48.652;9.194;2023-05-20T09:31:49;10.13;;;6.70;;
69410;SDS011;56604;48.652;9.194;2023-05-20T09:34:15;6.40;;;5.80;;
69410;SDS011;56604;48.652;9.194;2023-05-20T09:36:42;8.03;;;6.60;;
69410;SDS011;56604;48.652;9.194;2023-05-20T09:39:13;7.87;;;6.53;;
69410;SDS011;56604;48.652;9.194;2023-05-20T09:42:22;7.07;;;6.47;;
69410;SDS011;56604;48.652;9.194;2023-05-20T09:44:42;10.13;;;6.90;;
69410;SDS011;56604;48.652;9.194;2023-05-20T09:47:09;11.33;;;6.87;;
69410;SDS011;56604;48.652;9.194;2023-05-20T09:49:35;15.30;;;7.40;;
69410;SDS011;56604;48.652;9.194;2023-05-20T09:52:02;6.83;;;6.23;;
69410;SDS011;56604;48.652;9.194;2023-05-20T09:54:28;7.00;;;6.40;;
69410;SDS011;56604;48.652;9.194;2023-05-20T09:56:55;7.73;;;7.03;;
69410;SDS011;56604;48.652;9.194;2023-05-20T09:59:21;6.83;;;6.13;;
69410;SDS011;56604;48.652;9.194;2023-05-20T10:01:48;6.60;;;6.00;;
69410;SDS011;56604;48.652;9.194;2023-05-20T10:04:14;11.33;;;6.77;;
69410;SDS011;56604;48.652;9.194;2023-05-20T10:06:51;8.63;;;6.57;;
69410;SDS011;56604;48.652;9.194;2023-05-20T10:12:13;9.53;;;5.87;;
69410;SDS011;56604;48.652;9.194;2023-05-20T10:17:38;7.10;;;6.30;;
69410;SDS011;56604;48.652;9.194;2023-05-20T10:20:13;8.80;;;7.10;;
69410;SDS011;56604;48.652;9.194;2023-05-20T10:22:38;6.60;;;6.00;;
69410;SDS011;56604;48.652;9.194;2023-05-20T10:25:05;7.17;;;6.57;;
69410;SDS011;56604;48.652;9.194;2023-05-20T10:27:44;6.97;;;6.33;;
69410;SDS011;56604;48.652;9.194;2023-05-20T10:30:14;8.70;;;6.10;;
69410;SDS011;56604;48.652;9.194;2023-05-20T10:32:47;10.33;;;5.70;;
69410;SDS011;56604;48.652;9.194;2023-05-20T10:35:19;18.33;;;7.40;;
69410;SDS011;56604;48.652;9.194;2023-05-20T10:37:46;11.67;;;6.60;;
69410;SDS011;56604;48.652;9.194;2023-05-20T10:40:12;6.97;;;6.03;;
69410;SDS011;56604;48.652;9.194;2023-05-20T10:42:39;6.43;;;5.83;;
69410;SDS011;56604;48.652;9.194;2023-05-20T10:45:06;5.97;;;5.47;;
69410;SDS011;56604;48.652;9.194;2023-05-20T10:47:32;7.80;;;5.70;;
69410;SDS011;56604;48.652;9.194;2023-05-20T10:49:58;7.20;;;6.50;;
69410;SDS011;56604;48.652;9.194;2023-05-20T10:52:25;10.57;;;6.10;;
69410;SDS011;56604;48.652;9.194;2023-05-20T10:54:58;7.50;;;5.43;;
69410;SDS011;56604;48.652;9.194;2023-05-20T10:57:25;5.87;;;5.37;;
69410;SDS011;56604;48.652;9.194;2023-05-20T10:59:52;6.33;;;5.73;;
69410;SDS011;56604;48.652;9.194;2023-05-20T11:02:18;8.57;;;5.80;;
69410;SDS011;56604;48.652;9.194;2023-05-20T11:04:47;9.83;;;5.60;;
69410;SDS011;56604;48.652;9.194;2023-05-20T11:07:23;5.83;;;5.33;;
69410;SDS011;56604;48.652;9.194;2023-05-20T11:09:53;7.37;;;6.13;;
69410;SDS011;56604;48.652;9.194;2023-05-20T11:12:19;11.73;;;5.30;;
69410;SDS011;56604;48.652;9.194;2023-05-20T11:14:47;11.20;;;5.47;;
69410;SDS011;56604;48.652;9.194;2023-05-20T11:17:13;7.27;;;5.87;;
69410;SDS011;56604;48.652;9.194;2023-05-20T11:19:38;6.30;;;5.80;;
69410;SDS011;56604;48.652;9.194;2023-05-20T11:22:06;6.77;;;5.00;;
69410;SDS011;56604;48.652;9.194;2023-05-20T11:24:32;5.53;;;5.03;;
69410;SDS011;56604;48.652;9.194;2023-05-20T11:26:58;7.13;;;5.10;;
69410;SDS011;56604;48.652;9.194;2023-05-20T11:29:25;5.97;;;5.37;;
69410;SDS011;56604;48.652;9.194;2023-05-20T11:31:51;5.37;;;4.93;;
69410;SDS011;56604;48.652;9.194;2023-05-20T11:34:20;5.47;;;4.97;;
69410;SDS011;56604;48.652;9.194;2023-05-20T11:36:46;6.63;;;5.10;;
69410;SDS011;56604;48.652;9.194;2023-05-20T11:39:14;17.13;;;6.60;;
69410;SDS011;56604;48.652;9.194;2023-05-20T11:41:40;6.40;;;4.90;;
69410;SDS011;56604;48.652;9.194;2023-05-20T11:44:09;6.33;;;5.80;;
69410;SDS011;56604;48.652;9.194;2023-05-20T11:46:42;6.53;;;5.93;;
69410;SDS011;56604;48.652;9.194;2023-05-20T11:49:08;6.20;;;5.70;;
69410;SDS011;56604;48.652;9.194;2023-05-20T11:51:34;6.80;;;6.20;;
69410;SDS011;56604;48.652;9.194;2023-05-20T11:54:01;8.17;;;5.60;;
69410;SDS011;56604;48.652;9.194;2023-05-20T11:56:33;5.77;;;5.17;;
69410;SDS011;56604;48.652;9.194;2023-05-20T11:59:01;6.27;;;5.17;;
69410;SDS011;56604;48.652;9.194;2023-05-20T12:01:37;12.13;;;5.77;;
69410;SDS011;56604;48.652;9.194;2023-05-20T12:04:07;6.90;;;5.33;;
69410;SDS011;56604;48.652;9.194;2023-05-20T12:06:33;5.83;;;5.20;;
69410;SDS011;56604;48.652;9.194;2023-05-20T12:09:00;4.93;;;4.53;;
69410;SDS011;56604;48.652;9.194;2023-05-20T12:11:36;6.03;;;4.40;;
69410;SDS011;56604;48.652;9.194;2023-05-20T12:14:04;5.67;;;5.07;;
69410;SDS011;56604;48.652;9.194;2023-05-20T12:16:30;5.50;;;5.00;;
69410;SDS011;56604;48.652;9.194;2023-05-20T12:18:57;5.73;;;5.27;;
69410;SDS011;56604;48.652;9.194;2023-05-20T12:21:22;5.73;;;5.33;;
69410;SDS011;56604;48.652;9.194;2023-05-20T12:23:48;5.47;;;4.97;;
69410;SDS011;56604;48.652;9.194;2023-05-20T12:26:13;6.30;;;5.23;;
69410;SDS011;56604;48.652;9.194;2023-05-20T12:28:39;5.20;;;4.80;;
69410;SDS011;56604;48.652;9.194;2023-05-20T12:31:05;5.17;;;4.77;;
69410;SDS011;56604;48.652;9.194;2023-05-20T12:33:30;8.87;;;5.80;;
69410;SDS011;56604;48.652;9.194;2023-05-20T12:35:55;6.07;;;5.53;;
69410;SDS011;56604;48.652;9.194;2023-05-20T12:38:21;6.60;;;4.83;;
69410;SDS011;56604;48.652;9.194;2023-05-20T12:40:47;5.17;;;4.67;;
69410;SDS011;56604;48.652;9.194;2023-05-20T12:43:12;6.90;;;4.70;;
69410;SDS011;56604;48.652;9.194;2023-05-20T12:45:37;5.40;;;4.90;;
69410;SDS011;56604;48.652;9.194;2023-05-20T12:48:03;7.40;;;4.70;;
69410;SDS011;56604;48.652;9.194;2023-05-20T12:50:29;4.80;;;4.40;;
69410;SDS011;56604;48.652;9.194;2023-05-20T12:52:55;5.10;;;4.60;;
69410;SDS011;56604;48.652;9.194;2023-05-20T12:55:20;8.53;;;4.67;;
69410;SDS011;56604;48.652;9.194;2023-05-20T12:57:45;11.13;;;5.50;;
69410;SDS011;56604;48.652;9.194;2023-05-20T13:00:11;12.83;;;5.37;;
69410;SDS011;56604;48.652;9.194;2023-05-20T13:02:37;6.13;;;5.10;;
69410;SDS011;56604;48.652;9.194;2023-05-20T13:05:04;7.80;;;4.90;;
69410;SDS011;56604;48.652;9.194;2023-05-20T13:07:29;7.13;;;5.00;;
69410;SDS011;56604;48.652;9.194;2023-05-20T13:09:56;5.53;;;4.90;;
69410;SDS011;56604;48.652;9.194;2023-05-20T13:12:22;5.57;;;5.07;;
69410;SDS011;56604;48.652;9.194;2023-05-20T13:14:47;7.00;;;4.90;;
69410;SDS011;56604;48.652;9.194;2023-05-20T13:17:12;7.80;;;4.60;;
69410;SDS011;56604;48.652;9.194;2023-05-20T13:19:38;8.93;;;4.80;;
69410;SDS011;56604;48.652;9.194;2023-05-20T13:22:04;5.13;;;4.63;;
69410;SDS011;56604;48.652;9.194;2023-05-20T13:24:33;20.40;;;5.60;;
69410;SDS011;56604;48.652;9.194;2023-05-20T13:26:59;7.00;;;4.70;;
69410;SDS011;56604;48.652;9.194;2023-05-20T13:29:25;5.77;;;5.20;;
69410;SDS011;56604;48.652;9.194;2023-05-20T13:31:51;8.30;;;5.17;;
69410;SDS011;56604;48.652;9.194;2023-05-20T13:34:16;5.43;;;4.90;;
69410;SDS011;56604;48.652;9.194;2023-05-20T13:36:41;10.10;;;4.63;;
69410;SDS011;56604;48.652;9.194;2023-05-20T13:39:07;4.90;;;4.40;;
69410;SDS011;56604;48.652;9.194;2023-05-20T13:41:32;10.33;;;4.70;;
69410;SDS011;56604;48.652;9.194;2023-05-20T13:43:58;7.37;;;4.93;;
69410;SDS011;56604;48.652;9.194;2023-05-20T13:46:23;4.53;;;4.13;;
69410;SDS011;56604;48.652;9.194;2023-05-20T13:48:49;8.63;;;5.17;;
69410;SDS011;56604;48.652;9.194;2023-05-20T13:51:14;5.40;;;4.90;;
69410;SDS011;56604;48.652;9.194;2023-05-20T13:53:40;5.77;;;4.20;;
69410;SDS011;56604;48.652;9.194;2023-05-20T13:56:05;11.43;;;4.50;;
69410;SDS011;56604;48.652;9.194;2023-05-20T13:58:33;5.27;;;4.20;;
69410;SDS011;56604;48.652;9.194;2023-05-20T14:00:59;4.60;;;4.23;;
69410;SDS011;56604;48.652;9.194;2023-05-20T14:03:24;4.30;;;4.00;;
69410;SDS011;56604;48.652;9.194;2023-05-20T14:05:49;4.50;;;4.03;;
69410;SDS011;56604;48.652;9.194;2023-05-20T14:08:15;7.17;;;4.43;;
69410;SDS011;56604;48.652;9.194;2023-05-20T14:10:40;4.43;;;4.03;;
69410;SDS011;56604;48.652;9.194;2023-05-20T14:13:05;4.33;;;4.03;;
69410;SDS011;56604;48.652;9.194;2023-05-20T14:15:32;5.20;;;4.80;;
69410;SDS011;56604;48.652;9.194;2023-05-20T14:17:57;4.63;;;4.23;;
69410;SDS011;56604;48.652;9.194;2023-05-20T14:20:23;4.83;;;4.27;;
69410;SDS011;56604;48.652;9.194;2023-05-20T14:22:50;8.03;;;4.10;;
69410;SDS011;56604;48.652;9.194;2023-05-20T14:25:16;8.50;;;4.20;;
69410;SDS011;56604;48.652;9.194;2023-05-20T14:27:42;4.43;;;4.03;;
69410;SDS011;56604;48.652;9.194;2023-05-20T14:30:07;4.57;;;3.90;;
69410;SDS011;56604;48.652;9.194;2023-05-20T14:32:33;3.83;;;3.53;;
69410;SDS011;56604;48.652;9.194;2023-05-20T14:34:58;6.90;;;4.33;;
69410;SDS011;56604;48.652;9.194;2023-05-20T14:37:24;7.10;;;4.73;;
69410;SDS011;56604;48.652;9.194;2023-05-20T14:39:51;3.80;;;3.50;;
69410;SDS011;56604;48.652;9.194;2023-05-20T14:42:16;8.30;;;4.27;;